Time;durP1;ratioP1;P1;durP2;ratioP2;P2;SDS_P1;SDS_P2;PMS_P1;PMS_P2;Temp;Humidity;BMP_temperature;BMP_pressure;BME280_temperature;BME280_humidity;BME280_pressure;Samples;Min_cycle;Max_cycle;Signal;HPM_P1;HPM_P2
2023/09/15 00:00:56;;;;;;;6.70;4.50;;;15.10;80.50;;;;;;4973847;28;20445;-74
2023/09/15 00:03:22;;;;;;;6.90;4.20;;;15.00;80.30;;;;;;4970689;28;20611;-72
2023/09/15 00:05:48;;;;;;;10.63;6.03;;;15.00;80.20;;;;;;4972556;28;20207;-73
2023/09/15 00:08:13;;;;;;;7.47;4.23;;;15.00;80.30;;;;;;4971354;28;20431;-73
2023/09/15 00:10:40;;;;;;;9.63;4.60;;;14.90;80.60;;;;;;4973509;28;20180;-73
2023/09/15 00:13:06;;;;;;;7.80;4.17;;;14.90;80.90;;;;;;4971878;28;20671;-74
2023/09/15 00:15:35;;;;;;;8.40;4.30;;;14.90;81.20;;;;;;4969744;28;20477;-73
2023/09/15 00:18:01;;;;;;;5.17;4.10;;;15.00;81.20;;;;;;4973611;28;20480;-74
2023/09/15 00:20:26;;;;;;;7.37;4.27;;;15.20;80.50;;;;;;4972889;28;20434;-74
2023/09/15 00:22:53;;;;;;;6.77;4.13;;;15.30;80.00;;;;;;4975521;28;20204;-73
2023/09/15 00:25:21;;;;;;;6.10;3.90;;;15.30;79.90;;;;;;4974931;28;20211;-72
2023/09/15 00:27:51;;;;;;;7.90;4.40;;;15.30;80.00;;;;;;4973974;28;20431;-74
2023/09/15 00:30:19;;;;;;;7.50;4.23;;;15.30;79.60;;;;;;4974552;28;20484;-74
2023/09/15 00:32:47;;;;;;;6.57;3.90;;;15.30;79.20;;;;;;4974050;28;20422;-75
2023/09/15 00:35:18;;;;;;;7.63;4.20;;;15.10;79.90;;;;;;4972930;28;20479;-73
2023/09/15 00:37:46;;;;;;;6.80;4.10;;;14.90;80.50;;;;;;4971854;28;20466;-75
2023/09/15 00:40:12;;;;;;;6.70;4.10;;;14.80;80.90;;;;;;4977311;28;20428;-71
2023/09/15 00:42:37;;;;;;;10.57;5.20;;;14.80;81.20;;;;;;4978558;28;20535;-74
2023/09/15 00:45:05;;;;;;;6.10;3.93;;;14.80;81.10;;;;;;4975585;28;20467;-74
2023/09/15 00:47:34;;;;;;;7.13;4.20;;;14.80;81.10;;;;;;4977246;28;20194;-72
2023/09/15 00:50:02;;;;;;;6.37;4.27;;;14.80;81.20;;;;;;4977733;28;20810;-74
2023/09/15 00:52:29;;;;;;;7.43;3.80;;;14.80;81.10;;;;;;4980795;28;20417;-74
2023/09/15 00:54:54;;;;;;;6.13;4.20;;;14.80;81.10;;;;;;4972712;28;20579;-76
2023/09/15 00:57:22;;;;;;;8.37;4.43;;;14.80;81.20;;;;;;4978970;28;20439;-74
2023/09/15 00:59:49;;;;;;;10.23;4.87;;;14.80;81.20;;;;;;4980270;28;20252;-72
2023/09/15 01:02:14;;;;;;;7.80;4.10;;;14.80;81.20;;;;;;4973860;28;20454;-73
2023/09/15 01:04:41;;;;;;;6.67;4.27;;;14.80;81.20;;;;;;4972133;28;20460;-74
2023/09/15 01:07:07;;;;;;;7.17;3.80;;;14.70;81.40;;;;;;4973484;28;20219;-73
2023/09/15 01:09:33;;;;;;;7.80;4.03;;;14.70;81.80;;;;;;4973545;28;20428;-74
2023/09/15 01:11:58;;;;;;;6.80;3.67;;;14.70;81.70;;;;;;4972285;28;20427;-73
2023/09/15 01:14:25;;;;;;;8.93;4.10;;;14.90;81.50;;;;;;4973552;28;20287;-75
2023/09/15 01:17:17;;;;;;;7.00;4.23;;;14.90;80.90;;;;;;4973830;28;20219;-73
2023/09/15 01:20:09;;;;;;;7.70;4.40;;;14.90;80.90;;;;;;4970198;28;20517;-74
2023/09/15 01:23:08;;;;;;;8.37;4.10;;;14.90;80.90;;;;;;4972884;28;20504;-73
2023/09/15 01:25:55;;;;;;;14.10;4.57;;;14.80;81.10;;;;;;4971787;28;20459;-73
2023/09/15 01:28:37;;;;;;;6.37;4.10;;;14.80;81.20;;;;;;4972146;28;20474;-73
2023/09/15 01:31:04;;;;;;;6.57;4.13;;;14.80;81.40;;;;;;4972043;28;20504;-74
2023/09/15 01:33:30;;;;;;;7.87;4.40;;;14.80;81.50;;;;;;4975280;28;21045;-74
2023/09/15 01:35:56;;;;;;;9.20;4.57;;;14.90;81.40;;;;;;4971276;28;20469;-73
2023/09/15 01:38:22;;;;;;;6.40;4.07;;;14.90;81.40;;;;;;4973151;28;20469;-72
2023/09/15 01:40:47;;;;;;;6.20;3.83;;;15.00;81.20;;;;;;4972373;28;20186;-72
2023/09/15 01:43:13;;;;;;;6.57;4.30;;;15.00;81.20;;;;;;4973146;28;20187;-74
2023/09/15 01:45:39;;;;;;;8.47;4.53;;;15.00;80.50;;;;;;4973634;28;20206;-74
2023/09/15 01:48:05;;;;;;;7.73;4.07;;;15.00;80.60;;;;;;4973221;28;20190;-74
2023/09/15 01:50:32;;;;;;;7.10;4.17;;;15.10;81.20;;;;;;4973493;28;20538;-73
2023/09/15 01:52:58;;;;;;;7.00;4.33;;;15.10;80.90;;;;;;4973977;28;20515;-75
2023/09/15 01:55:25;;;;;;;8.23;4.50;;;15.10;80.60;;;;;;4975437;28;20560;-74
2023/09/15 01:57:51;;;;;;;6.30;4.20;;;15.00;80.50;;;;;;4976373;28;20271;-74
2023/09/15 02:00:17;;;;;;;7.23;4.40;;;14.90;80.60;;;;;;4974209;28;20986;-75
2023/09/15 02:02:43;;;;;;;6.60;4.53;;;14.90;80.60;;;;;;4972891;28;20188;-74
2023/09/15 02:05:14;;;;;;;9.10;4.63;;;14.90;80.60;;;;;;4970698;28;21043;-74
2023/09/15 02:07:40;;;;;;;8.50;4.50;;;14.90;80.50;;;;;;4972579;28;20183;-74
2023/09/15 02:10:06;;;;;;;7.23;4.40;;;14.90;80.30;;;;;;4974039;28;20438;-74
2023/09/15 02:12:31;;;;;;;6.47;4.43;;;14.90;80.50;;;;;;4976042;28;20185;-72
2023/09/15 02:14:57;;;;;;;7.20;4.70;;;14.90;80.90;;;;;;4972788;28;20477;-73
2023/09/15 02:17:23;;;;;;;8.73;4.23;;;14.90;80.90;;;;;;4975487;28;20184;-74
2023/09/15 02:19:49;;;;;;;7.60;4.27;;;15.00;81.20;;;;;;4977242;28;20540;-73
2023/09/15 02:22:16;;;;;;;7.63;4.70;;;14.90;81.20;;;;;;4973858;28;20184;-73
2023/09/15 02:24:42;;;;;;;7.87;4.70;;;14.80;81.70;;;;;;4971046;28;20415;-74
2023/09/15 02:27:08;;;;;;;9.17;5.07;;;14.80;81.80;;;;;;4971964;28;20423;-73
2023/09/15 02:29:33;;;;;;;8.90;4.73;;;14.70;82.10;;;;;;4972415;28;20273;-73
2023/09/15 02:31:59;;;;;;;7.23;4.13;;;14.70;82.20;;;;;;4972679;28;20195;-75
2023/09/15 02:34:24;;;;;;;9.60;4.87;;;14.80;82.20;;;;;;4977182;28;20197;-74
2023/09/15 02:36:50;;;;;;;9.43;5.07;;;14.80;82.10;;;;;;4970127;28;20711;-74
2023/09/15 02:39:15;;;;;;;8.17;4.00;;;14.80;81.90;;;;;;4970030;28;20211;-73
2023/09/15 02:41:41;;;;;;;7.53;4.27;;;14.70;82.10;;;;;;4976390;28;20189;-73
2023/09/15 02:44:08;;;;;;;7.60;3.97;;;14.60;82.10;;;;;;4974331;28;20179;-74
2023/09/15 02:46:33;;;;;;;7.03;4.53;;;14.60;81.80;;;;;;4970187;28;20209;-73
2023/09/15 02:49:00;;;;;;;11.63;4.30;;;14.60;81.70;;;;;;4971811;28;21000;-74
2023/09/15 02:51:25;;;;;;;7.17;3.97;;;14.60;81.90;;;;;;4971905;28;20199;-74
2023/09/15 02:53:51;;;;;;;6.90;4.30;;;14.50;81.80;;;;;;4972125;28;20505;-75
2023/09/15 02:56:18;;;;;;;10.70;5.70;;;14.40;82.10;;;;;;4970021;28;20212;-75
2023/09/15 02:58:44;;;;;;;9.73;5.40;;;14.40;82.70;;;;;;4972316;28;20610;-75
2023/09/15 03:01:13;;;;;;;9.17;5.40;;;14.30;82.70;;;;;;4983964;28;20519;-76
2023/09/15 03:03:38;;;;;;;9.03;5.80;;;14.30;83.00;;;;;;4984517;28;20256;-74
2023/09/15 03:06:05;;;;;;;9.63;5.03;;;14.20;83.10;;;;;;4977345;28;20488;-73
2023/09/15 03:08:31;;;;;;;10.67;5.07;;;14.20;83.40;;;;;;4980365;28;20202;-74
2023/09/15 03:10:56;;;;;;;9.57;5.70;;;14.20;83.60;;;;;;4982555;28;20424;-74
2023/09/15 03:13:22;;;;;;;9.13;4.70;;;14.20;83.70;;;;;;4981711;28;20234;-74
2023/09/15 03:15:48;;;;;;;9.00;4.77;;;14.20;83.70;;;;;;4976624;28;20289;-74
2023/09/15 03:18:13;;;;;;;7.77;5.07;;;14.20;83.80;;;;;;4974358;28;20585;-74
2023/09/15 03:20:39;;;;;;;9.03;5.70;;;14.20;83.80;;;;;;4972218;28;20231;-74
2023/09/15 03:23:04;;;;;;;11.97;6.03;;;14.20;83.80;;;;;;4971015;28;20196;-74
2023/09/15 03:25:30;;;;;;;13.30;6.23;;;14.30;83.70;;;;;;4973223;28;20290;-73
2023/09/15 03:27:55;;;;;;;9.73;5.30;;;14.20;83.70;;;;;;4971938;28;20180;-73
2023/09/15 03:30:21;;;;;;;9.50;5.43;;;14.20;83.80;;;;;;4975454;28;20191;-72
2023/09/15 03:32:47;;;;;;;9.30;5.20;;;14.10;83.80;;;;;;4971508;28;20274;-72
2023/09/15 03:35:13;;;;;;;8.43;5.33;;;14.10;84.00;;;;;;4969737;28;20215;-75
2023/09/15 03:37:39;;;;;;;8.77;5.60;;;14.10;84.10;;;;;;4970458;28;20471;-72
2023/09/15 03:40:07;;;;;;;10.20;5.80;;;14.10;84.00;;;;;;4972239;28;20510;-73
2023/09/15 03:42:33;;;;;;;10.10;5.80;;;14.10;84.10;;;;;;4973299;28;20191;-74
2023/09/15 03:44:59;;;;;;;11.33;5.67;;;14.20;84.10;;;;;;4967910;28;20458;-72
2023/09/15 03:47:25;;;;;;;7.87;4.90;;;14.20;84.00;;;;;;4971623;28;20433;-73
2023/09/15 03:49:51;;;;;;;11.70;6.00;;;14.20;83.80;;;;;;4971960;28;20198;-72
2023/09/15 03:52:16;;;;;;;11.23;6.40;;;14.10;83.80;;;;;;4970573;28;20183;-74
2023/09/15 03:54:42;;;;;;;6.63;4.53;;;14.10;84.00;;;;;;4970299;28;20435;-73
2023/09/15 03:57:07;;;;;;;7.10;4.50;;;14.10;84.00;;;;;;4974196;28;20181;-74
2023/09/15 03:59:34;;;;;;;8.00;4.47;;;14.20;83.70;;;;;;4974408;28;20215;-74
2023/09/15 04:02:00;;;;;;;6.57;4.47;;;14.20;83.00;;;;;;4973631;28;20215;-73
2023/09/15 04:04:26;;;;;;;5.67;3.80;;;14.10;82.70;;;;;;4974540;28;20426;-74
2023/09/15 04:06:53;;;;;;;6.70;4.30;;;14.10;82.50;;;;;;4971750;28;20509;-72
2023/09/15 04:09:19;;;;;;;7.40;4.50;;;14.10;82.50;;;;;;4972122;28;20267;-74
2023/09/15 04:11:44;;;;;;;7.60;4.00;;;14.10;82.50;;;;;;4975645;28;20892;-73
2023/09/15 04:14:10;;;;;;;5.43;3.90;;;14.20;81.90;;;;;;4977281;28;20203;-74
2023/09/15 04:16:37;;;;;;;8.47;4.50;;;14.10;82.10;;;;;;4972543;28;20212;-72
2023/09/15 04:19:03;;;;;;;9.90;4.93;;;14.10;82.20;;;;;;4976826;28;20602;-74
2023/09/15 04:21:29;;;;;;;6.57;4.43;;;14.10;82.10;;;;;;4973342;28;20426;-73
2023/09/15 04:23:55;;;;;;;6.93;4.17;;;14.10;82.10;;;;;;4975937;28;20430;-74
2023/09/15 04:26:20;;;;;;;10.30;4.70;;;14.10;82.20;;;;;;4972754;28;20959;-73
2023/09/15 04:28:46;;;;;;;7.57;4.13;;;14.00;82.70;;;;;;4971708;28;20183;-72
2023/09/15 04:31:12;;;;;;;7.97;4.70;;;13.90;82.80;;;;;;4976710;28;20614;-74
2023/09/15 04:33:37;;;;;;;10.17;5.27;;;13.80;83.10;;;;;;4975838;28;20466;-73
2023/09/15 04:36:03;;;;;;;10.00;5.37;;;13.90;83.70;;;;;;4979094;28;20714;-73
2023/09/15 04:38:32;;;;;;;15.90;5.40;;;13.80;84.00;;;;;;4972038;28;20219;-76
2023/09/15 04:40:58;;;;;;;9.93;5.13;;;13.80;84.10;;;;;;4975077;28;20462;-71
2023/09/15 04:43:24;;;;;;;8.23;5.13;;;13.70;84.30;;;;;;4975617;28;20430;-73
2023/09/15 04:45:50;;;;;;;12.70;5.70;;;13.70;84.70;;;;;;4976804;28;20990;-72
2023/09/15 04:48:15;;;;;;;7.93;5.03;;;13.70;84.90;;;;;;4977237;28;20179;-72
2023/09/15 04:50:41;;;;;;;11.27;5.83;;;13.70;84.70;;;;;;4977395;28;20215;-72
2023/09/15 04:53:07;;;;;;;9.70;4.80;;;13.70;84.60;;;;;;4976983;28;20183;-73
2023/09/15 04:55:35;;;;;;;7.73;4.90;;;13.70;84.60;;;;;;4975646;28;20466;-74
2023/09/15 04:58:01;;;;;;;6.80;4.70;;;13.60;84.00;;;;;;4975168;28;20198;-74
2023/09/15 05:00:29;;;;;;;9.13;5.07;;;13.50;84.10;;;;;;4975668;28;20813;-75
2023/09/15 05:02:56;;;;;;;8.97;5.30;;;13.50;83.80;;;;;;4975518;28;20187;-75
2023/09/15 05:05:21;;;;;;;7.73;4.60;;;13.40;83.80;;;;;;4974792;28;20561;-74
2023/09/15 05:07:47;;;;;;;6.50;4.50;;;13.50;84.10;;;;;;4974292;28;20502;-75
2023/09/15 05:10:12;;;;;;;9.77;5.47;;;13.50;84.30;;;;;;4974794;28;20649;-74
2023/09/15 05:12:38;;;;;;;7.67;4.50;;;13.40;84.40;;;;;;4973797;28;20580;-74
2023/09/15 05:15:04;;;;;;;9.67;5.43;;;13.50;84.30;;;;;;4972850;28;20686;-74
2023/09/15 05:17:31;;;;;;;8.70;5.67;;;13.50;84.40;;;;;;4973264;28;20202;-73
2023/09/15 05:19:57;;;;;;;10.40;5.40;;;13.40;84.60;;;;;;4973702;28;20435;-74
2023/09/15 05:22:23;;;;;;;10.00;5.77;;;13.40;84.90;;;;;;4972821;28;20844;-74
2023/09/15 05:24:48;;;;;;;10.93;6.70;;;13.50;85.00;;;;;;4968697;28;20184;-75
2023/09/15 05:27:14;;;;;;;10.93;5.53;;;13.50;85.00;;;;;;4972710;28;20761;-73
2023/09/15 05:29:39;;;;;;;9.90;5.37;;;13.50;85.00;;;;;;4972251;28;20302;-74
2023/09/15 05:32:05;;;;;;;8.33;5.10;;;13.50;85.30;;;;;;4972824;28;20183;-74
2023/09/15 05:34:31;;;;;;;8.03;5.27;;;13.50;85.30;;;;;;4973403;28;20191;-73
2023/09/15 05:36:57;;;;;;;13.40;6.77;;;13.60;85.00;;;;;;4970471;28;20268;-75
2023/09/15 05:39:22;;;;;;;14.07;6.47;;;13.70;84.90;;;;;;4971540;28;20718;-73
2023/09/15 05:41:48;;;;;;;15.30;5.60;;;13.80;84.90;;;;;;4981835;28;20237;-74
2023/09/15 05:44:16;;;;;;;10.17;5.77;;;13.80;84.60;;;;;;4972662;28;20557;-74
2023/09/15 05:46:42;;;;;;;8.87;5.10;;;13.80;84.60;;;;;;4975689;28;20613;-74
2023/09/15 05:49:07;;;;;;;9.57;5.73;;;13.90;84.30;;;;;;4973669;28;21408;-74
2023/09/15 05:51:33;;;;;;;13.20;6.23;;;13.90;83.70;;;;;;4973794;28;20459;-73
2023/09/15 05:53:59;;;;;;;9.00;5.17;;;13.90;83.60;;;;;;4974167;28;20856;-74
2023/09/15 05:56:24;;;;;;;13.00;5.93;;;13.90;83.40;;;;;;4976198;28;20298;-74
2023/09/15 05:58:50;;;;;;;10.40;5.30;;;13.90;83.30;;;;;;4972868;28;20318;-74
2023/09/15 06:01:17;;;;;;;11.43;5.70;;;13.90;83.30;;;;;;4973273;28;20507;-73
2023/09/15 06:03:43;;;;;;;10.03;5.67;;;13.90;83.30;;;;;;4973483;28;20198;-73
2023/09/15 06:06:09;;;;;;;13.53;5.70;;;14.00;83.30;;;;;;4970361;28;20956;-73
2023/09/15 06:08:34;;;;;;;11.97;5.73;;;14.00;83.00;;;;;;4972120;28;20207;-74
2023/09/15 06:11:00;;;;;;;24.30;8.37;;;14.10;82.80;;;;;;4971744;28;20214;-75
2023/09/15 06:13:25;;;;;;;16.20;6.47;;;14.20;82.50;;;;;;4972455;28;20195;-73
2023/09/15 06:15:51;;;;;;;20.90;6.53;;;14.30;82.40;;;;;;4969712;28;20215;-75
2023/09/15 06:18:17;;;;;;;29.83;8.50;;;14.30;82.50;;;;;;4972429;28;20200;-73
2023/09/15 06:20:42;;;;;;;18.27;7.63;;;14.30;82.50;;;;;;4973795;28;20247;-72
2023/09/15 06:23:09;;;;;;;19.77;7.77;;;14.30;82.70;;;;;;4976443;28;20188;-73
2023/09/15 06:25:35;;;;;;;15.90;6.80;;;14.30;82.70;;;;;;4972645;28;20203;-75
2023/09/15 06:28:01;;;;;;;24.83;7.10;;;14.20;82.50;;;;;;4972920;28;20431;-73
2023/09/15 06:30:27;;;;;;;15.23;7.47;;;14.20;82.70;;;;;;4973306;28;20491;-74
2023/09/15 06:32:55;;;;;;;11.20;6.63;;;14.30;82.50;;;;;;4971018;28;20183;-74
2023/09/15 06:35:22;;;;;;;16.33;7.20;;;14.30;82.20;;;;;;4971853;28;20458;-74
2023/09/15 06:37:48;;;;;;;17.70;6.83;;;14.40;82.20;;;;;;4976609;28;20424;-73
2023/09/15 06:40:14;;;;;;;13.60;7.57;;;14.40;82.20;;;;;;4977058;28;20434;-73
2023/09/15 06:42:39;;;;;;;19.00;7.13;;;14.50;82.10;;;;;;4972560;28;20578;-74
2023/09/15 06:45:06;;;;;;;15.93;7.07;;;14.60;82.10;;;;;;4970415;28;21054;-74
2023/09/15 06:47:31;;;;;;;18.50;8.50;;;14.60;82.10;;;;;;4970705;28;20198;-73
2023/09/15 06:49:57;;;;;;;12.97;7.40;;;14.60;82.20;;;;;;4981784;28;20475;-75
2023/09/15 06:52:22;;;;;;;13.13;6.57;;;14.70;82.50;;;;;;4972367;28;20179;-75
2023/09/15 06:54:48;;;;;;;17.20;8.10;;;14.70;82.70;;;;;;4970452;28;20188;-73
2023/09/15 06:57:14;;;;;;;12.93;7.27;;;14.90;82.50;;;;;;4971624;28;20187;-73
2023/09/15 06:59:39;;;;;;;12.07;7.17;;;15.10;81.80;;;;;;4972206;28;20178;-73
2023/09/15 07:02:05;;;;;;;15.93;8.03;;;15.10;81.50;;;;;;4972220;28;20858;-73
2023/09/15 07:04:31;;;;;;;14.90;7.80;;;15.20;81.20;;;;;;4971661;28;20184;-75
2023/09/15 07:06:57;;;;;;;16.53;8.67;;;15.20;81.20;;;;;;4969041;28;20442;-75
2023/09/15 07:09:22;;;;;;;11.50;6.90;;;15.20;81.10;;;;;;4971815;28;20297;-73
2023/09/15 07:11:48;;;;;;;15.43;7.63;;;15.30;80.90;;;;;;4974922;28;20211;-75
2023/09/15 07:14:14;;;;;;;13.53;7.60;;;15.40;80.80;;;;;;4973287;28;20213;-76
2023/09/15 07:16:41;;;;;;;11.70;7.30;;;15.50;80.60;;;;;;4969587;28;20207;-73
2023/09/15 07:19:06;;;;;;;16.17;8.40;;;15.60;80.30;;;;;;4975804;28;20207;-74
2023/09/15 07:21:32;;;;;;;15.13;8.10;;;15.70;80.20;;;;;;4977524;28;20944;-77
2023/09/15 07:23:59;;;;;;;16.17;8.17;;;15.80;80.00;;;;;;4984178;28;20255;-73
2023/09/15 07:26:26;;;;;;;16.60;7.70;;;15.90;79.60;;;;;;4976702;28;20217;-75
2023/09/15 07:28:52;;;;;;;15.63;7.90;;;16.00;79.30;;;;;;4971732;28;20467;-73
2023/09/15 07:31:19;;;;;;;18.37;9.40;;;16.00;79.30;;;;;;4972022;28;20469;-74
2023/09/15 07:33:45;;;;;;;16.53;8.40;;;16.10;79.00;;;;;;4974149;28;20441;-75
2023/09/15 07:36:11;;;;;;;15.83;8.47;;;16.20;78.90;;;;;;4974490;28;20459;-74
2023/09/15 07:38:37;;;;;;;14.90;8.47;;;16.30;78.90;;;;;;4971879;28;20923;-74
2023/09/15 07:41:03;;;;;;;15.13;8.17;;;16.40;78.70;;;;;;4971934;28;20423;-75
2023/09/15 07:43:28;;;;;;;15.40;8.10;;;16.50;78.40;;;;;;4977789;28;20191;-76
2023/09/15 07:45:54;;;;;;;13.70;8.30;;;16.60;78.00;;;;;;4968303;28;20214;-76
2023/09/15 07:48:21;;;;;;;15.10;7.80;;;16.70;77.70;;;;;;4970439;28;20214;-74
2023/09/15 07:50:47;;;;;;;13.13;8.60;;;16.80;77.40;;;;;;4980958;28;20186;-73
2023/09/15 07:53:21;;;;;;;14.17;8.40;;;16.90;77.30;;;;;;4974069;28;20469;-73
2023/09/15 07:55:47;;;;;;;14.63;7.87;;;17.00;77.00;;;;;;4969599;28;20221;-74
2023/09/15 07:58:13;;;;;;;14.43;8.17;;;17.10;76.80;;;;;;4975985;28;20426;-75
2023/09/15 08:00:38;;;;;;;17.27;8.73;;;17.10;76.50;;;;;;4977481;28;20179;-72
2023/09/15 08:03:04;;;;;;;13.37;8.40;;;17.20;76.40;;;;;;4972713;28;20210;-74
2023/09/15 08:05:29;;;;;;;15.80;8.90;;;17.30;76.20;;;;;;4969203;28;20218;-74
2023/09/15 08:07:55;;;;;;;14.70;8.63;;;17.40;75.80;;;;;;4969119;28;20203;-75
2023/09/15 08:10:23;;;;;;;15.60;8.87;;;17.50;75.50;;;;;;4976939;28;20184;-74
2023/09/15 08:12:52;;;;;;;15.30;8.10;;;17.50;75.10;;;;;;4974627;28;20676;-75
2023/09/15 08:15:21;;;;;;;16.13;8.53;;;17.40;75.20;;;;;;4971671;28;20641;-74
2023/09/15 08:17:48;;;;;;;12.50;7.80;;;17.50;75.50;;;;;;4974719;28;20418;-74
2023/09/15 08:20:14;;;;;;;19.60;8.97;;;17.70;74.50;;;;;;4973133;28;20864;-73
2023/09/15 08:22:40;;;;;;;14.03;7.70;;;17.70;74.30;;;;;;4970329;28;20518;-72
2023/09/15 08:25:07;;;;;;;12.30;7.93;;;17.70;74.60;;;;;;4976762;28;20796;-74
2023/09/15 08:27:33;;;;;;;17.87;9.10;;;17.90;74.30;;;;;;4978153;28;20447;-74
2023/09/15 08:29:59;;;;;;;16.33;9.37;;;17.90;74.00;;;;;;4987382;28;20621;-73
2023/09/15 08:32:25;;;;;;;14.87;8.97;;;17.90;74.20;;;;;;4971801;28;20691;-74
2023/09/15 08:34:51;;;;;;;13.73;8.20;;;17.90;74.20;;;;;;4970159;28;20438;-75
2023/09/15 08:37:16;;;;;;;17.00;9.47;;;17.90;74.00;;;;;;4969604;28;20213;-74
2023/09/15 08:39:42;;;;;;;15.87;8.37;;;17.90;73.90;;;;;;4973350;28;20298;-74
2023/09/15 08:42:25;;;;;;;18.17;8.47;;;18.00;74.20;;;;;;4978509;28;20258;-74
2023/09/15 08:44:51;;;;;;;21.33;8.30;;;18.00;73.90;;;;;;4971455;28;20694;-73
2023/09/15 08:47:19;;;;;;;14.10;8.60;;;18.10;73.90;;;;;;4975380;28;20770;-73
2023/09/15 08:49:45;;;;;;;11.53;7.60;;;18.10;73.60;;;;;;4976772;28;20475;-75
2023/09/15 08:52:13;;;;;;;13.93;7.60;;;18.20;73.70;;;;;;4974764;28;20481;-74
2023/09/15 08:54:40;;;;;;;12.10;7.40;;;18.30;73.60;;;;;;4973353;28;20435;-72
2023/09/15 08:57:06;;;;;;;14.00;7.90;;;18.40;73.00;;;;;;4976290;28;20447;-75
2023/09/15 08:59:33;;;;;;;12.67;7.87;;;18.50;72.70;;;;;;4974579;28;20423;-72
2023/09/15 09:02:00;;;;;;;11.20;7.90;;;18.60;73.00;;;;;;4975426;28;20496;-74
2023/09/15 09:04:26;;;;;;;9.97;6.77;;;18.70;72.70;;;;;;4974735;28;20415;-74
2023/09/15 09:06:52;;;;;;;11.80;6.87;;;18.90;72.60;;;;;;4972333;28;20466;-74
2023/09/15 09:09:18;;;;;;;11.07;6.90;;;19.10;72.30;;;;;;4977218;28;20556;-73
2023/09/15 09:11:44;;;;;;;12.83;7.20;;;19.20;72.00;;;;;;4981835;28;20940;-73
2023/09/15 09:14:12;;;;;;;13.63;7.77;;;19.20;71.30;;;;;;4980218;28;20485;-73
2023/09/15 09:16:44;;;;;;;14.10;8.47;;;19.40;71.10;;;;;;4978486;28;20210;-73
2023/09/15 09:19:10;;;;;;;13.40;7.53;;;19.50;70.40;;;;;;4983575;28;20499;-73
2023/09/15 09:21:36;;;;;;;14.93;8.13;;;19.50;70.50;;;;;;4979696;28;20466;-75
2023/09/15 09:24:02;;;;;;;13.50;8.30;;;19.60;70.20;;;;;;4983285;28;20416;-73
2023/09/15 09:26:29;;;;;;;15.23;8.43;;;19.60;69.90;;;;;;4978047;28;20466;-73
2023/09/15 09:28:57;;;;;;;11.63;7.20;;;19.60;70.40;;;;;;4983826;28;20470;-74
2023/09/15 09:31:27;;;;;;;12.40;8.13;;;19.70;70.40;;;;;;4979456;28;20856;-75
2023/09/15 09:33:54;;;;;;;13.70;7.73;;;19.80;69.80;;;;;;4973913;28;20477;-74
2023/09/15 09:36:19;;;;;;;14.13;7.97;;;19.80;69.90;;;;;;4972579;28;20471;-74
2023/09/15 09:38:47;;;;;;;12.10;7.23;;;19.80;70.10;;;;;;4975850;28;20935;-73
2023/09/15 09:41:15;;;;;;;15.53;8.00;;;20.00;70.10;;;;;;4974222;28;20199;-74
2023/09/15 09:43:43;;;;;;;17.33;8.20;;;20.10;69.70;;;;;;4980422;28;20435;-73
2023/09/15 09:46:10;;;;;;;11.90;7.30;;;20.30;69.10;;;;;;4971770;28;20463;-76
2023/09/15 09:48:36;;;;;;;13.80;7.40;;;20.40;68.80;;;;;;4975729;28;21323;-75
2023/09/15 09:51:03;;;;;;;11.40;7.47;;;20.60;68.50;;;;;;4972646;28;20435;-76
2023/09/15 09:53:32;;;;;;;14.80;8.53;;;20.70;68.20;;;;;;4973236;28;20482;-74
2023/09/15 09:56:01;;;;;;;13.73;7.87;;;20.70;67.90;;;;;;4971023;28;20460;-74
2023/09/15 09:58:27;;;;;;;15.43;9.40;;;20.70;67.90;;;;;;4971770;28;20443;-74
2023/09/15 10:00:53;;;;;;;15.00;8.60;;;20.60;68.20;;;;;;4974914;28;20953;-74
2023/09/15 10:03:23;;;;;;;12.90;7.87;;;20.60;68.60;;;;;;4974905;28;20195;-73
2023/09/15 10:05:49;;;;;;;14.10;8.50;;;20.60;68.30;;;;;;4974065;28;20475;-75
2023/09/15 10:08:16;;;;;;;19.20;8.40;;;20.70;68.50;;;;;;4975991;28;20415;-73
2023/09/15 10:10:44;;;;;;;16.13;8.30;;;20.80;68.30;;;;;;4976151;28;20451;-74
2023/09/15 10:13:17;;;;;;;12.07;7.17;;;21.00;67.60;;;;;;4976157;28;20451;-72
2023/09/15 10:15:44;;;;;;;13.53;9.00;;;21.20;67.30;;;;;;4974093;28;20620;-73
2023/09/15 10:18:12;;;;;;;13.37;7.97;;;21.20;66.90;;;;;;4971839;28;20437;-75
2023/09/15 10:20:46;;;;;;;12.50;7.40;;;21.10;67.20;;;;;;4972440;28;20444;-72
2023/09/15 10:23:13;;;;;;;14.23;8.27;;;21.10;67.30;;;;;;4982865;28;20952;-72
2023/09/15 10:25:52;;;;;;;12.67;8.60;;;21.10;67.50;;;;;;4972740;28;20508;-74
2023/09/15 10:28:19;;;;;;;13.80;6.80;;;21.30;67.00;;;;;;4983462;28;20590;-74
2023/09/15 10:30:45;;;;;;;13.93;8.17;;;21.50;66.60;;;;;;4972318;28;20543;-75
2023/09/15 10:33:13;;;;;;;12.97;7.87;;;21.60;66.30;;;;;;4975105;28;20442;-74
2023/09/15 10:35:39;;;;;;;11.90;7.70;;;21.60;66.00;;;;;;4971762;28;20466;-73
2023/09/15 10:38:05;;;;;;;13.33;7.03;;;21.70;66.10;;;;;;4971647;28;20437;-73
2023/09/15 10:40:47;;;;;;;12.87;8.03;;;22.00;65.70;;;;;;4971350;28;20520;-74
2023/09/15 10:43:14;;;;;;;11.70;6.53;;;22.40;64.80;;;;;;4970799;28;20482;-72
2023/09/15 10:45:39;;;;;;;12.50;6.97;;;22.90;63.80;;;;;;4969979;28;20467;-73
2023/09/15 10:48:05;;;;;;;15.20;7.30;;;23.30;62.80;;;;;;4977852;28;20424;-74
2023/09/15 10:50:36;;;;;;;10.50;7.40;;;23.70;62.00;;;;;;4972316;28;20191;-72
2023/09/15 10:53:09;;;;;;;11.40;7.67;;;24.10;61.70;;;;;;4972085;28;20562;-74
2023/09/15 10:55:36;;;;;;;9.07;6.60;;;24.30;60.70;;;;;;4969049;28;20641;-73
2023/09/15 10:58:03;;;;;;;11.70;7.00;;;24.40;60.90;;;;;;4972088;28;20443;-73
2023/09/15 11:00:30;;;;;;;11.17;7.27;;;24.30;60.90;;;;;;4972317;28;20487;-73
2023/09/15 11:02:56;;;;;;;13.50;7.30;;;24.50;60.90;;;;;;4971888;28;20448;-74
2023/09/15 11:05:22;;;;;;;10.20;6.60;;;24.80;61.00;;;;;;4983731;28;20466;-73
2023/09/15 11:07:49;;;;;;;10.47;6.33;;;25.10;61.00;;;;;;4972340;28;20199;-73
2023/09/15 11:10:15;;;;;;;9.77;6.73;;;25.50;60.60;;;;;;4972993;28;20232;-73
2023/09/15 11:12:40;;;;;;;11.53;6.80;;;25.80;60.00;;;;;;4973396;28;20518;-73
2023/09/15 11:15:07;;;;;;;12.53;6.47;;;25.80;59.60;;;;;;4967586;28;20648;-73
2023/09/15 11:17:32;;;;;;;10.40;6.37;;;25.60;60.00;;;;;;4976425;28;20240;-73
2023/09/15 11:20:04;;;;;;;9.13;5.93;;;25.80;59.90;;;;;;4976124;28;20438;-76
2023/09/15 11:22:29;;;;;;;10.67;6.40;;;26.10;59.60;;;;;;4974388;28;20206;-72
2023/09/15 11:24:56;;;;;;;9.90;6.30;;;26.00;59.10;;;;;;4969081;28;20482;-73
2023/09/15 11:27:22;;;;;;;9.17;6.57;;;26.00;59.30;;;;;;4990027;28;20197;-75
2023/09/15 11:29:47;;;;;;;8.43;6.03;;;26.00;59.50;;;;;;4977001;28;20990;-73
2023/09/15 11:32:13;;;;;;;7.87;6.30;;;26.40;58.80;;;;;;4977024;28;20278;-73
2023/09/15 11:34:39;;;;;;;10.27;6.60;;;26.70;58.40;;;;;;4972288;28;20211;-71
2023/09/15 11:37:05;;;;;;;13.63;6.50;;;26.80;58.00;;;;;;4978698;28;20453;-74
2023/09/15 11:39:32;;;;;;;9.53;6.33;;;26.40;58.00;;;;;;4973904;28;20269;-74
2023/09/15 11:41:57;;;;;;;8.37;5.57;;;26.40;58.50;;;;;;4985367;28;20217;-74
2023/09/15 11:44:25;;;;;;;8.27;6.07;;;26.60;58.00;;;;;;4978062;28;20482;-73
2023/09/15 11:46:52;;;;;;;7.07;5.53;;;26.50;58.10;;;;;;4982211;28;20218;-73
2023/09/15 11:49:19;;;;;;;9.73;5.70;;;26.50;58.10;;;;;;4978284;28;20489;-74
2023/09/15 11:51:46;;;;;;;7.37;5.27;;;26.60;57.80;;;;;;4979245;28;20512;-73
2023/09/15 11:54:12;;;;;;;7.40;5.53;;;26.90;57.30;;;;;;4983361;28;20490;-73
2023/09/15 11:56:38;;;;;;;10.63;6.00;;;27.10;56.60;;;;;;4974674;28;20454;-74
2023/09/15 11:59:08;;;;;;;7.57;5.90;;;26.80;56.90;;;;;;4976540;28;20410;-74
2023/09/15 12:01:36;;;;;;;10.80;6.20;;;27.00;56.40;;;;;;4981749;28;20541;-74
2023/09/15 12:04:03;;;;;;;12.17;7.20;;;26.70;56.50;;;;;;4981912;28;20460;-72
2023/09/15 12:06:30;;;;;;;8.07;5.80;;;26.60;57.00;;;;;;4972618;28;20462;-73
2023/09/15 12:08:56;;;;;;;7.73;5.73;;;27.00;56.90;;;;;;4974764;28;20505;-73
2023/09/15 12:11:22;;;;;;;12.80;7.60;;;27.60;56.10;;;;;;4974315;28;20422;-75
2023/09/15 12:13:51;;;;;;;8.10;6.07;;;28.10;55.30;;;;;;4973969;28;20457;-73
2023/09/15 12:16:28;;;;;;;7.73;5.50;;;28.40;53.80;;;;;;4973777;28;20470;-73
2023/09/15 12:18:55;;;;;;;7.70;5.63;;;28.10;54.20;;;;;;4977869;28;20553;-74
2023/09/15 12:21:24;;;;;;;8.73;5.93;;;28.10;54.10;;;;;;4972815;28;20458;-74
2023/09/15 12:23:51;;;;;;;8.37;5.50;;;28.30;54.10;;;;;;4976032;28;20442;-72
2023/09/15 12:26:18;;;;;;;10.73;7.17;;;28.30;53.40;;;;;;4974376;28;20466;-75
2023/09/15 12:28:43;;;;;;;9.20;6.57;;;28.10;53.70;;;;;;4975688;28;20469;-74
2023/09/15 12:31:17;;;;;;;7.50;5.53;;;27.70;54.20;;;;;;4977418;28;20442;-73
2023/09/15 12:33:46;;;;;;;8.13;5.57;;;27.70;54.40;;;;;;4975193;28;20198;-73
2023/09/15 12:36:15;;;;;;;7.80;5.60;;;27.70;54.10;;;;;;4979134;28;20478;-72
2023/09/15 12:38:41;;;;;;;8.30;5.13;;;27.50;54.50;;;;;;4983318;28;20516;-74